createdAt,value
2023-04-11T00:01:23.090Z,3.47
2023-04-11T00:04:10.539Z,3.63
2023-04-11T00:06:57.941Z,3.70
2023-04-11T00:09:45.285Z,3.63
2023-04-11T00:12:32.641Z,3.85
2023-04-11T00:15:19.976Z,2.95
2023-04-11T00:18:07.309Z,3.58
2023-04-11T00:20:54.622Z,3.42
2023-04-11T00:23:41.941Z,3.83
2023-04-11T00:26:29.227Z,3.55
2023-04-11T00:29:16.595Z,3.75
2023-04-11T00:32:04.075Z,4.30
2023-04-11T00:34:52.010Z,3.45
2023-04-11T00:37:39.358Z,3.40
2023-04-11T00:40:26.690Z,3.40
2023-04-11T00:43:14.006Z,3.55
2023-04-11T00:46:01.374Z,3.63
2023-04-11T00:48:48.766Z,4.05
2023-04-11T00:51:36.078Z,3.45
2023-04-11T00:54:23.394Z,3.55
2023-04-11T00:57:10.703Z,4.05
2023-04-11T00:59:57.995Z,3.33
2023-04-11T01:02:45.555Z,3.13
2023-04-11T01:05:32.984Z,2.90
2023-04-11T01:08:20.326Z,3.38
2023-04-11T01:11:07.646Z,3.28
2023-04-11T01:13:54.962Z,3.80
2023-04-11T01:16:42.333Z,3.47
2023-04-11T01:19:29.694Z,3.60
2023-04-11T01:22:16.965Z,3.47
2023-04-11T01:25:04.325Z,3.47
2023-04-11T01:27:51.921Z,3.72
2023-04-11T01:30:39.331Z,3.45
2023-04-11T01:33:26.644Z,3.72
2023-04-11T01:36:14.000Z,4.07
2023-04-11T01:39:01.335Z,4.05
2023-04-11T01:41:48.667Z,4.07
2023-04-11T01:44:36.014Z,3.47
2023-04-11T01:47:23.413Z,3.88
2023-04-11T01:50:10.741Z,4.68
2023-04-11T01:52:58.080Z,3.92
2023-04-11T01:55:45.411Z,4.07
2023-04-11T01:58:32.749Z,3.85
2023-04-11T02:01:20.141Z,3.83
2023-04-11T02:04:07.649Z,4.25
2023-04-11T02:06:55.041Z,3.85
2023-04-11T02:09:42.364Z,3.95
2023-04-11T02:12:29.695Z,4.40
2023-04-11T02:15:17.029Z,4.65
2023-04-11T02:18:04.359Z,3.50
2023-04-11T02:20:51.754Z,3.45
2023-04-11T02:23:39.098Z,3.97
2023-04-11T02:26:26.423Z,4.10
2023-04-11T02:29:13.697Z,4.65
2023-04-11T02:32:01.143Z,3.92
2023-04-11T02:34:48.572Z,3.78
2023-04-11T02:37:35.911Z,3.60
2023-04-11T02:40:23.246Z,3.25
2023-04-11T02:43:10.586Z,3.67
2023-04-11T02:46:09.503Z,4.20
2023-04-11T02:48:59.353Z,5.07
2023-04-11T02:51:46.692Z,3.60
2023-04-11T02:54:34.022Z,4.38
2023-04-11T02:57:21.339Z,3.13
2023-04-11T03:00:08.668Z,4.13
2023-04-11T03:02:56.069Z,4.38
2023-04-11T03:05:43.452Z,4.22
2023-04-11T03:08:30.799Z,4.53
2023-04-11T03:11:18.224Z,4.90
2023-04-11T03:14:05.547Z,4.50
2023-04-11T03:16:52.864Z,4.43
2023-04-11T03:19:40.172Z,5.25
2023-04-11T03:22:27.525Z,5.43
2023-04-11T03:25:14.863Z,3.92
2023-04-11T03:28:02.230Z,5.07
2023-04-11T03:30:49.549Z,5.65
2023-04-11T03:33:36.934Z,5.45
2023-04-11T03:36:24.239Z,3.80
2023-04-11T03:39:11.799Z,4.95
2023-04-11T03:41:59.096Z,5.88
2023-04-11T03:44:46.393Z,4.93
2023-04-11T03:47:33.732Z,4.53
2023-04-11T03:50:21.077Z,5.30
2023-04-11T03:53:08.415Z,4.30
2023-04-11T03:55:55.721Z,5.13
2023-04-11T03:58:43.050Z,4.35
2023-04-11T04:01:30.350Z,3.90
2023-04-11T04:04:17.772Z,5.10
2023-04-11T04:07:05.152Z,5.40
2023-04-11T04:09:52.479Z,4.63
2023-04-11T04:12:39.820Z,4.65
2023-04-11T04:15:27.154Z,4.38
2023-04-11T04:18:14.482Z,5.03
2023-04-11T04:21:01.811Z,4.95
2023-04-11T04:23:49.160Z,5.18
2023-04-11T04:26:36.521Z,4.82
2023-04-11T04:29:23.842Z,5.28
2023-04-11T04:32:11.817Z,5.20
2023-04-11T04:34:59.180Z,5.32
2023-04-11T04:37:46.564Z,4.38
2023-04-11T04:40:33.905Z,4.63
2023-04-11T04:43:21.212Z,5.28
2023-04-11T04:46:08.554Z,5.38
2023-04-11T04:48:55.954Z,4.55
2023-04-11T04:51:43.306Z,5.95
2023-04-11T04:54:30.640Z,4.47
2023-04-11T04:57:17.974Z,4.25
2023-04-11T05:00:05.343Z,5.85
2023-04-11T05:02:52.804Z,4.88
2023-04-11T05:05:40.235Z,5.15
2023-04-11T05:08:27.568Z,5.32
2023-04-11T05:11:14.945Z,4.75
2023-04-11T05:14:02.282Z,5.10
2023-04-11T05:16:49.666Z,4.03
2023-04-11T05:19:37.028Z,5.32
2023-04-11T05:22:24.368Z,4.82
2023-04-11T05:25:11.663Z,5.32
2023-04-11T05:27:59.023Z,4.65
2023-04-11T05:30:46.374Z,4.75
2023-04-11T05:33:33.747Z,4.13
2023-04-11T05:36:21.070Z,5.70
2023-04-11T05:39:08.426Z,4.55
2023-04-11T05:41:55.717Z,5.50
2023-04-11T05:44:43.221Z,5.65
2023-04-11T05:47:30.561Z,6.00
2023-04-11T05:50:17.897Z,5.68
2023-04-11T05:53:05.204Z,6.70
2023-04-11T05:55:52.522Z,6.57
2023-04-11T05:58:39.849Z,6.25
2023-04-11T06:01:27.178Z,6.40
2023-04-11T06:04:14.659Z,5.53
2023-04-11T06:07:02.054Z,4.57
2023-04-11T06:09:49.375Z,6.03
2023-04-11T06:12:36.704Z,5.70
2023-04-11T06:15:24.010Z,4.78
2023-04-11T06:18:11.384Z,6.18
2023-04-11T06:20:58.710Z,4.28
2023-04-11T06:23:46.057Z,4.28
2023-04-11T06:26:33.392Z,3.97
2023-04-11T06:29:20.739Z,5.53
2023-04-11T06:32:08.050Z,5.78
2023-04-11T06:34:55.377Z,6.05
2023-04-11T06:37:42.699Z,5.75
2023-04-11T06:40:30.154Z,4.35
2023-04-11T06:43:17.536Z,4.45
2023-04-11T06:46:04.908Z,4.53
2023-04-11T06:48:52.261Z,4.43
2023-04-11T06:51:39.578Z,4.20
2023-04-11T06:54:26.909Z,3.72
2023-04-11T06:57:14.222Z,4.13
2023-04-11T07:00:01.513Z,3.88
2023-04-11T07:02:49.116Z,3.17
2023-04-11T07:05:39.088Z,4.80
2023-04-11T07:08:26.893Z,3.90
2023-04-11T07:11:14.172Z,4.05
2023-04-11T07:14:01.502Z,3.17
2023-04-11T07:16:48.774Z,2.97
2023-04-11T07:19:36.106Z,2.40
2023-04-11T07:22:23.397Z,0.95
2023-04-11T07:25:10.686Z,0.65
2023-04-11T07:27:58.001Z,0.50
2023-04-11T07:30:45.432Z,0.70
2023-04-11T07:33:32.922Z,0.40
2023-04-11T07:36:20.258Z,0.30
2023-04-11T07:39:07.600Z,0.40
2023-04-11T07:41:54.928Z,0.30
2023-04-11T07:44:42.248Z,0.40
2023-04-11T07:47:29.639Z,0.32
2023-04-11T07:50:16.991Z,0.20
2023-04-11T07:53:04.368Z,0.20
2023-04-11T07:55:51.642Z,0.20
2023-04-11T07:58:39.017Z,0.38
2023-04-11T08:01:26.319Z,0.40
2023-04-11T08:04:13.818Z,0.40
2023-04-11T08:07:01.485Z,0.70
2023-04-11T08:09:48.790Z,0.50
2023-04-11T08:12:36.117Z,0.47
2023-04-11T08:15:23.457Z,0.40
2023-04-11T08:18:12.268Z,0.40
2023-04-11T08:20:59.839Z,0.32
2023-04-11T08:23:47.791Z,0.40
2023-04-11T08:26:35.114Z,0.43
2023-04-11T08:29:22.395Z,0.30
2023-04-11T08:32:09.712Z,0.30
2023-04-11T08:34:56.997Z,0.40
2023-04-11T08:37:44.320Z,0.47
2023-04-11T08:40:31.658Z,0.40
2023-04-11T08:43:19.056Z,0.47
2023-04-11T08:46:06.415Z,0.30
2023-04-11T08:48:53.753Z,0.22
2023-04-11T08:51:41.050Z,0.30
2023-04-11T08:54:28.757Z,0.47
2023-04-11T08:57:16.106Z,0.50
2023-04-11T09:00:03.405Z,0.38
2023-04-11T09:02:50.777Z,0.30
2023-04-11T09:05:38.231Z,0.45
2023-04-11T09:08:25.548Z,0.22
2023-04-11T09:11:12.909Z,0.20
2023-04-11T09:14:00.213Z,0.38
2023-04-11T09:16:47.565Z,0.40
2023-04-11T09:19:34.933Z,0.30
2023-04-11T09:22:22.397Z,0.28
2023-04-11T09:25:09.686Z,0.40
2023-04-11T09:27:57.022Z,0.30
2023-04-11T09:30:44.328Z,0.38
2023-04-11T09:33:31.675Z,0.38
2023-04-11T09:36:19.046Z,0.30
2023-04-11T09:39:06.376Z,0.65
2023-04-11T09:41:53.704Z,0.40
2023-04-11T09:44:41.039Z,0.40
2023-04-11T09:47:28.396Z,0.28
2023-04-11T09:50:15.768Z,0.43
2023-04-11T09:53:03.089Z,0.50
2023-04-11T09:55:50.393Z,0.60
2023-04-11T09:58:37.771Z,0.20
2023-04-11T10:01:25.169Z,0.30
2023-04-11T10:04:12.554Z,0.30
2023-04-11T10:06:59.902Z,0.40
2023-04-11T10:09:47.240Z,0.22
2023-04-11T10:12:34.521Z,0.30
2023-04-11T10:15:21.905Z,0.40
2023-04-11T10:18:09.292Z,0.30
2023-04-11T10:20:56.679Z,0.30
2023-04-11T10:23:43.987Z,0.47
2023-04-11T10:26:31.315Z,0.30
2023-04-11T10:29:18.619Z,0.30
2023-04-11T10:32:05.994Z,0.30
2023-04-11T10:34:53.347Z,0.20
2023-04-11T10:37:40.694Z,0.30
2023-04-11T10:40:28.034Z,0.20
2023-04-11T10:43:15.377Z,0.20
2023-04-11T10:46:02.707Z,0.10
2023-04-11T10:48:50.084Z,0.28
2023-04-11T10:51:37.426Z,0.30
2023-04-11T10:54:24.791Z,0.20
2023-04-11T10:57:12.100Z,0.32
2023-04-11T10:59:59.416Z,0.30
2023-04-11T11:02:46.950Z,0.43
2023-04-11T11:05:34.385Z,0.43
2023-04-11T11:08:21.765Z,0.50
2023-04-11T11:11:09.089Z,0.63
2023-04-11T11:13:56.730Z,0.47
2023-04-11T11:16:45.115Z,0.50
2023-04-11T11:19:32.568Z,0.28
2023-04-11T11:22:19.869Z,0.50
2023-04-11T11:25:07.222Z,0.47
2023-04-11T11:27:54.535Z,0.80
2023-04-11T11:30:41.878Z,0.45
2023-04-11T11:33:29.275Z,0.45
2023-04-11T11:36:16.870Z,1.25
2023-04-11T11:39:04.180Z,0.70
2023-04-11T11:41:51.536Z,0.50
2023-04-11T11:44:38.929Z,0.90
2023-04-11T11:47:26.286Z,0.77
2023-04-11T11:50:13.597Z,0.40
2023-04-11T11:53:00.952Z,0.82
2023-04-11T11:55:48.267Z,0.80
2023-04-11T11:58:35.642Z,0.60
2023-04-11T12:01:22.953Z,0.60
2023-04-11T12:04:10.370Z,0.60
2023-04-11T12:06:57.870Z,0.60
2023-04-11T12:09:45.246Z,0.30
2023-04-11T12:12:32.597Z,0.70
2023-04-11T12:15:19.979Z,0.93
2023-04-11T12:18:07.398Z,0.50
2023-04-11T12:20:54.767Z,0.45
2023-04-11T12:23:42.081Z,0.70
2023-04-11T12:26:29.407Z,0.60
2023-04-11T12:29:16.719Z,0.93
2023-04-11T12:32:04.138Z,0.75
2023-04-11T12:34:51.453Z,0.70
2023-04-11T12:37:38.774Z,0.70
2023-04-11T12:40:26.104Z,0.50
2023-04-11T12:43:13.446Z,0.35
2023-04-11T12:46:00.781Z,0.45
2023-04-11T12:48:48.094Z,0.65
2023-04-11T12:51:35.464Z,0.30
2023-04-11T12:54:22.815Z,0.60
2023-04-11T12:57:10.160Z,0.40
2023-04-11T12:59:57.480Z,0.50
2023-04-11T13:02:45.482Z,0.20
2023-04-11T13:05:33.079Z,0.55
2023-04-11T13:08:20.454Z,0.40
2023-04-11T13:11:07.752Z,0.60
2023-04-11T13:13:55.069Z,0.50
2023-04-11T13:16:42.560Z,0.57
2023-04-11T13:19:30.091Z,0.60
2023-04-11T13:22:17.368Z,0.50
2023-04-11T13:25:04.736Z,0.80
2023-04-11T13:27:52.083Z,0.60
2023-04-11T13:30:39.430Z,0.80
2023-04-11T13:33:26.774Z,0.70
2023-04-11T13:36:14.119Z,0.60
2023-04-11T13:39:01.430Z,0.40
2023-04-11T13:41:48.789Z,0.70
2023-04-11T13:44:36.106Z,0.40
2023-04-11T13:47:23.561Z,0.47
2023-04-11T13:50:10.976Z,0.57
2023-04-11T13:52:58.463Z,0.57
2023-04-11T13:55:45.787Z,0.52
2023-04-11T13:58:33.112Z,0.50
2023-04-11T14:01:20.455Z,0.22
2023-04-11T14:04:07.939Z,0.38
2023-04-11T14:06:55.407Z,0.50
2023-04-11T14:09:42.746Z,0.68
2023-04-11T14:12:30.133Z,0.32
2023-04-11T14:15:18.296Z,0.47
2023-04-11T14:18:06.789Z,0.50
2023-04-11T14:20:54.145Z,0.50
2023-04-11T14:23:41.457Z,0.50
2023-04-11T14:26:28.776Z,0.52
2023-04-11T14:29:16.286Z,0.52
2023-04-11T14:32:03.746Z,0.50
2023-04-11T14:34:51.139Z,0.60
2023-04-11T14:37:38.482Z,0.55
2023-04-11T14:40:25.826Z,0.43
2023-04-11T14:43:13.188Z,0.75
2023-04-11T14:46:00.497Z,0.50
2023-04-11T14:48:47.843Z,0.75
2023-04-11T14:51:35.178Z,0.38
2023-04-11T14:54:22.611Z,0.85
2023-04-11T14:57:09.948Z,0.38
2023-04-11T14:59:57.298Z,0.60
2023-04-11T15:02:44.694Z,0.82
2023-04-11T15:05:32.075Z,0.73
2023-04-11T15:08:19.417Z,0.28
2023-04-11T15:11:06.807Z,0.63
2023-04-11T15:13:54.365Z,0.85
2023-04-11T15:16:41.864Z,0.50
2023-04-11T15:19:29.156Z,0.70
2023-04-11T15:22:16.512Z,0.65
2023-04-11T15:25:03.824Z,0.47
2023-04-11T15:27:51.155Z,0.40
2023-04-11T15:30:38.489Z,0.75
2023-04-11T15:33:25.852Z,0.60
2023-04-11T15:36:13.178Z,0.40
2023-04-11T15:39:00.566Z,0.50
2023-04-11T15:41:47.840Z,0.28
2023-04-11T15:44:35.111Z,0.30
2023-04-11T15:47:22.412Z,0.50
2023-04-11T15:50:09.753Z,0.30
2023-04-11T15:52:57.837Z,0.38
2023-04-11T15:55:45.297Z,0.70
2023-04-11T15:58:33.830Z,0.35
2023-04-11T16:01:21.486Z,0.40
2023-04-11T16:04:08.929Z,0.38
2023-04-11T16:06:56.297Z,0.20
2023-04-11T16:09:43.617Z,0.45
2023-04-11T16:12:30.989Z,0.40
2023-04-11T16:15:18.324Z,0.43
2023-04-11T16:18:05.798Z,0.40
2023-04-11T16:20:53.152Z,0.50
2023-04-11T16:23:40.465Z,0.40
2023-04-11T16:26:27.789Z,0.40
2023-04-11T16:29:15.108Z,0.50
2023-04-11T16:32:02.584Z,0.50
2023-04-11T16:34:50.035Z,0.70
2023-04-11T16:37:37.374Z,0.28
2023-04-11T16:40:24.782Z,0.45
2023-04-11T16:43:12.116Z,0.70
2023-04-11T16:45:59.458Z,0.60
2023-04-11T16:48:46.792Z,0.57
2023-04-11T16:51:34.176Z,0.40
2023-04-11T16:54:21.479Z,0.50
2023-04-11T16:57:08.866Z,0.73
2023-04-11T16:59:56.189Z,0.55
2023-04-11T17:02:43.660Z,0.50
2023-04-11T17:05:31.065Z,0.38
2023-04-11T17:08:18.454Z,0.50
2023-04-11T17:11:05.842Z,0.43
2023-04-11T17:13:53.203Z,0.93
2023-04-11T17:16:40.541Z,0.55
2023-04-11T17:19:27.913Z,0.30
2023-04-11T17:22:15.229Z,0.68
2023-04-11T17:25:02.566Z,0.63
2023-04-11T17:27:49.910Z,0.30
2023-04-11T17:30:37.297Z,0.70
2023-04-11T17:33:24.689Z,0.50
2023-04-11T17:36:12.222Z,0.50
2023-04-11T17:38:59.601Z,0.60
2023-04-11T17:41:46.906Z,0.40
2023-04-11T17:44:34.278Z,0.70
2023-04-11T17:47:21.613Z,0.50
2023-04-11T17:50:08.947Z,0.60
2023-04-11T17:52:56.263Z,0.52
2023-04-11T17:55:43.561Z,0.57
2023-04-11T17:58:30.899Z,0.57
2023-04-11T18:01:18.251Z,0.60
2023-04-11T18:04:05.683Z,0.60
2023-04-11T18:06:53.031Z,1.20
2023-04-11T18:09:40.365Z,1.20
2023-04-11T18:12:29.533Z,0.80
2023-04-11T18:15:17.193Z,0.65
2023-04-11T18:18:04.580Z,0.77
2023-04-11T18:20:51.941Z,0.60
2023-04-11T18:23:39.307Z,1.00
2023-04-11T18:26:26.668Z,0.90
2023-04-11T18:29:13.992Z,0.80
2023-04-11T18:32:01.300Z,0.63
2023-04-11T18:34:48.746Z,0.50
2023-04-11T18:37:36.085Z,0.47
2023-04-11T18:40:23.447Z,0.30
2023-04-11T18:43:10.757Z,0.40
2023-04-11T18:45:58.286Z,0.90
2023-04-11T18:48:45.650Z,0.65
2023-04-11T18:51:32.969Z,1.02
2023-04-11T18:54:20.246Z,1.08
2023-04-11T18:57:09.122Z,1.00
2023-04-11T18:59:57.681Z,0.75
2023-04-11T19:02:48.485Z,0.77
2023-04-11T19:05:36.276Z,0.77
2023-04-11T19:08:23.805Z,1.80
2023-04-11T19:11:11.193Z,2.20
2023-04-11T19:13:58.712Z,1.50
2023-04-11T19:16:46.458Z,0.95
2023-04-11T19:19:33.884Z,1.27
2023-04-11T19:22:21.208Z,1.40
2023-04-11T19:25:08.564Z,1.25
2023-04-11T19:27:55.910Z,1.10
2023-04-11T19:30:43.249Z,0.68
2023-04-11T19:33:30.583Z,0.90
2023-04-11T19:36:17.931Z,0.70
2023-04-11T19:39:05.274Z,0.55
2023-04-11T19:41:52.610Z,0.63
2023-04-11T19:44:40.000Z,0.50
2023-04-11T19:47:27.396Z,0.70
2023-04-11T19:50:14.738Z,0.65
2023-04-11T19:53:02.066Z,0.90
2023-04-11T19:55:49.397Z,1.02
2023-04-11T19:58:36.696Z,1.50
2023-04-11T20:01:24.053Z,1.00
2023-04-11T20:04:11.555Z,0.73
2023-04-11T20:06:58.987Z,0.75
2023-04-11T20:09:46.281Z,0.60
2023-04-11T20:12:33.635Z,0.43
2023-04-11T20:15:20.963Z,0.50
2023-04-11T20:18:08.333Z,0.40
2023-04-11T20:20:55.678Z,0.60
2023-04-11T20:23:43.363Z,0.50
2023-04-11T20:26:30.698Z,0.55
2023-04-11T20:29:18.136Z,0.50
2023-04-11T20:32:05.539Z,1.00
2023-04-11T20:34:52.913Z,0.57
2023-04-11T20:37:40.280Z,0.60
2023-04-11T20:40:27.639Z,1.10
2023-04-11T20:43:14.940Z,1.38
2023-04-11T20:46:02.281Z,0.85
2023-04-11T20:48:49.588Z,0.52
2023-04-11T20:51:36.932Z,0.60
2023-04-11T20:54:24.258Z,0.75
2023-04-11T20:57:11.599Z,0.80
2023-04-11T20:59:58.967Z,0.57
2023-04-11T21:02:46.421Z,0.57
2023-04-11T21:05:33.876Z,0.75
2023-04-11T21:08:21.224Z,1.55
2023-04-11T21:11:08.542Z,0.20
2023-04-11T21:13:56.087Z,0.68
2023-04-11T21:16:43.524Z,0.60
2023-04-11T21:19:30.902Z,0.20
2023-04-11T21:22:18.211Z,0.50
2023-04-11T21:25:05.568Z,0.50
2023-04-11T21:27:52.863Z,0.98
2023-04-11T21:30:40.228Z,1.67
2023-04-11T21:33:27.575Z,1.33
2023-04-11T21:36:14.967Z,1.10
2023-04-11T21:39:02.402Z,0.70
2023-04-11T21:41:49.780Z,0.73
2023-04-11T21:44:37.130Z,0.70
2023-04-11T21:47:24.494Z,0.73
2023-04-11T21:50:11.837Z,2.00
2023-04-11T21:52:59.219Z,1.08
2023-04-11T21:55:46.527Z,0.70
2023-04-11T21:58:33.854Z,1.10
2023-04-11T22:01:21.168Z,0.90
2023-04-11T22:04:08.707Z,0.90
2023-04-11T22:06:56.148Z,1.40
2023-04-11T22:09:43.511Z,1.20
2023-04-11T22:12:30.840Z,0.95
2023-04-11T22:15:18.251Z,0.73
2023-04-11T22:18:05.765Z,1.15
2023-04-11T22:20:53.143Z,1.20
2023-04-11T22:23:40.486Z,1.15
2023-04-11T22:26:27.823Z,1.10
2023-04-11T22:29:15.146Z,0.75
2023-04-11T22:32:02.539Z,0.73
2023-04-11T22:34:50.002Z,0.93
2023-04-11T22:37:37.429Z,0.90
2023-04-11T22:40:24.725Z,0.70
2023-04-11T22:43:12.057Z,1.00
2023-04-11T22:45:59.450Z,0.85
2023-04-11T22:48:46.823Z,0.98
2023-04-11T22:51:34.097Z,0.82
2023-04-11T22:54:21.429Z,1.00
2023-04-11T22:57:08.779Z,1.00
2023-04-11T22:59:56.150Z,0.80
2023-04-11T23:02:43.460Z,1.05
2023-04-11T23:05:31.105Z,0.80
2023-04-11T23:08:18.420Z,1.30
2023-04-11T23:11:05.727Z,0.77
2023-04-11T23:13:53.064Z,0.82
2023-04-11T23:16:40.571Z,1.00
2023-04-11T23:19:27.877Z,0.68
2023-04-11T23:22:15.193Z,0.90
2023-04-11T23:25:02.557Z,0.82
2023-04-11T23:27:49.927Z,0.77
2023-04-11T23:30:37.315Z,0.85
2023-04-11T23:33:25.060Z,0.98
2023-04-11T23:36:12.378Z,0.85
2023-04-11T23:38:59.697Z,0.75
2023-04-11T23:41:47.050Z,0.93
2023-04-11T23:44:34.389Z,0.95
2023-04-11T23:47:21.691Z,0.80
2023-04-11T23:50:08.987Z,0.60
2023-04-11T23:52:56.265Z,0.57
2023-04-11T23:55:43.578Z,0.90
2023-04-11T23:58:30.841Z,0.85
